Time;durP1;ratioP1;P1;durP2;ratioP2;P2;SDS_P1;SDS_P2;PMS_P1;PMS_P2;Temp;Humidity;BMP_temperature;BMP_pressure;BME280_temperature;BME280_humidity;BME280_pressure;Samples;Min_cycle;Max_cycle;Signal;HPM_P1;HPM_P2
2023/01/02 00:00:52;;;;;;;12.05;8.70;;;13.20;99.90;;;;;;2549618;23;20005;-71
2023/01/02 00:01:53;;;;;;;14.45;9.75;;;13.20;99.90;;;;;;2549709;23;20331;-71
2023/01/02 00:02:53;;;;;;;18.25;10.15;;;13.10;99.90;;;;;;2548984;23;20433;-71
2023/01/02 00:03:55;;;;;;;14.10;10.60;;;13.10;99.90;;;;;;2550193;23;20013;-72
2023/01/02 00:04:56;;;;;;;16.30;12.75;;;13.10;99.90;;;;;;2551512;23;20009;-71
2023/01/02 00:05:56;;;;;;;17.90;12.35;;;13.10;99.90;;;;;;2549692;23;20347;-72
2023/01/02 00:06:57;;;;;;;18.88;13.23;;;13.10;99.90;;;;;;2549860;23;20009;-72
2023/01/02 00:07:58;;;;;;;20.02;12.93;;;13.10;99.90;;;;;;2549903;23;20299;-70
2023/01/02 00:08:58;;;;;;;17.15;12.30;;;13.10;99.90;;;;;;2551851;23;20009;-71
2023/01/02 00:09:59;;;;;;;16.55;11.40;;;13.10;99.90;;;;;;2549779;23;20084;-71
2023/01/02 00:10:59;;;;;;;15.20;9.88;;;13.10;99.90;;;;;;2549868;23;19997;-71
2023/01/02 00:12:00;;;;;;;12.48;9.30;;;13.10;99.90;;;;;;2549731;23;20020;-72
2023/01/02 00:13:00;;;;;;;12.93;8.50;;;13.10;99.90;;;;;;2552096;23;20025;-72
2023/01/02 00:14:01;;;;;;;15.23;8.40;;;13.10;99.90;;;;;;2549875;23;20078;-71
2023/01/02 00:15:02;;;;;;;11.55;7.97;;;13.10;99.90;;;;;;2550163;23;20023;-71
2023/01/02 00:16:03;;;;;;;12.10;7.90;;;13.20;99.90;;;;;;2549687;23;20005;-71
2023/01/02 00:17:03;;;;;;;13.07;8.88;;;13.20;99.90;;;;;;2549034;23;20063;-72
2023/01/02 00:18:04;;;;;;;13.43;8.30;;;13.20;99.90;;;;;;2551050;23;20005;-71
2023/01/02 00:19:07;;;;;;;12.88;9.10;;;13.20;99.90;;;;;;2550008;23;20012;-70
2023/01/02 00:20:08;;;;;;;11.07;8.57;;;13.20;99.90;;;;;;2558307;23;20166;-71
2023/01/02 00:21:08;;;;;;;14.38;9.75;;;13.20;99.90;;;;;;2562064;23;20065;-71
2023/01/02 00:22:09;;;;;;;12.43;8.65;;;13.20;99.90;;;;;;2564286;23;20001;-71
2023/01/02 00:23:10;;;;;;;13.43;8.60;;;13.20;99.90;;;;;;2562019;23;20201;-71
2023/01/02 00:24:10;;;;;;;14.90;8.45;;;13.20;99.90;;;;;;2561941;23;20012;-71
2023/01/02 00:25:11;;;;;;;11.45;7.95;;;13.20;99.90;;;;;;2562315;23;20393;-72
2023/01/02 00:26:11;;;;;;;10.77;7.93;;;13.20;99.90;;;;;;2562001;23;20012;-71
2023/01/02 00:27:13;;;;;;;9.85;7.60;;;13.20;99.90;;;;;;2563517;23;20388;-71
2023/01/02 00:28:14;;;;;;;11.40;8.10;;;13.20;99.90;;;;;;2561262;23;20372;-71
2023/01/02 00:29:14;;;;;;;13.60;8.60;;;13.20;99.90;;;;;;2562039;23;20425;-71
2023/01/02 00:30:15;;;;;;;14.32;8.05;;;13.20;99.90;;;;;;2562235;23;20004;-71
2023/01/02 00:31:16;;;;;;;13.27;8.27;;;13.20;99.90;;;;;;2564275;23;20039;-70
2023/01/02 00:32:16;;;;;;;12.95;8.40;;;13.20;99.90;;;;;;2561953;23;20004;-70
2023/01/02 00:33:17;;;;;;;16.13;8.70;;;13.20;99.90;;;;;;2562098;23;20005;-70
2023/01/02 00:34:17;;;;;;;14.48;8.13;;;13.20;99.90;;;;;;2562237;23;20091;-72
2023/01/02 00:35:18;;;;;;;12.55;7.70;;;13.30;99.90;;;;;;2564483;23;20349;-70
2023/01/02 00:36:18;;;;;;;14.02;7.32;;;13.30;99.90;;;;;;2562083;23;20422;-71
2023/01/02 00:37:19;;;;;;;14.20;9.80;;;13.20;99.90;;;;;;2562126;23;20008;-71
2023/01/02 00:38:19;;;;;;;11.32;8.13;;;13.20;99.90;;;;;;2561862;23;20032;-73
2023/01/02 00:39:20;;;;;;;19.63;12.00;;;13.20;99.90;;;;;;2564390;23;20023;-71
2023/01/02 00:40:21;;;;;;;17.40;11.15;;;13.20;99.90;;;;;;2549075;23;20347;-73
2023/01/02 00:41:22;;;;;;;14.43;10.23;;;13.20;99.90;;;;;;2549011;23;20001;-73
2023/01/02 00:42:23;;;;;;;16.38;9.75;;;13.20;99.90;;;;;;2548785;23;20088;-72
2023/01/02 00:43:24;;;;;;;12.68;8.48;;;13.20;99.90;;;;;;2550786;23;20167;-71
2023/01/02 00:44:24;;;;;;;14.55;8.10;;;13.20;99.90;;;;;;2543551;23;20071;-72
2023/01/02 00:45:26;;;;;;;11.23;7.72;;;13.20;99.90;;;;;;2549125;23;20389;-70
2023/01/02 00:46:27;;;;;;;15.88;9.55;;;13.20;99.90;;;;;;2561167;23;20000;-72
2023/01/02 00:47:27;;;;;;;15.20;8.93;;;13.20;99.90;;;;;;2561284;23;20009;-72
2023/01/02 00:48:28;;;;;;;13.30;8.02;;;13.20;99.90;;;;;;2564083;23;20078;-72
2023/01/02 00:49:28;;;;;;;12.27;8.38;;;13.20;99.90;;;;;;2562262;23;20007;-71
2023/01/02 00:50:29;;;;;;;13.95;8.15;;;13.20;99.90;;;;;;2562072;23;20000;-71
2023/01/02 00:51:29;;;;;;;14.35;8.50;;;13.20;99.90;;;;;;2562196;23;20005;-71
2023/01/02 00:52:30;;;;;;;12.57;7.53;;;13.20;99.90;;;;;;2562027;23;20002;-72
2023/01/02 00:53:31;;;;;;;12.93;7.65;;;13.20;99.90;;;;;;2564655;23;20009;-72
2023/01/02 00:54:31;;;;;;;11.57;7.32;;;13.30;99.90;;;;;;2562057;23;20307;-70
2023/01/02 00:55:32;;;;;;;10.82;7.60;;;13.20;99.90;;;;;;2561888;23;20333;-71
2023/01/02 00:56:32;;;;;;;11.48;6.85;;;13.20;99.90;;;;;;2560907;23;20243;-71
2023/01/02 00:57:33;;;;;;;10.80;7.18;;;13.30;99.90;;;;;;2563442;23;20115;-72
2023/01/02 00:58:34;;;;;;;12.88;7.18;;;13.30;99.90;;;;;;2562009;23;20008;-71
2023/01/02 00:59:35;;;;;;;11.60;6.95;;;13.30;99.90;;;;;;2562241;23;20001;-70
2023/01/02 01:00:35;;;;;;;12.57;7.45;;;13.30;99.90;;;;;;2561922;23;20008;-72
2023/01/02 01:01:36;;;;;;;10.80;7.50;;;13.30;99.90;;;;;;2564692;23;19996;-70
2023/01/02 01:02:37;;;;;;;14.15;7.75;;;13.30;99.90;;;;;;2561849;23;20369;-71
2023/01/02 01:03:42;;;;;;;14.25;8.30;;;13.30;99.90;;;;;;2562342;23;20150;-77
2023/01/02 01:04:42;;;;;;;13.18;7.35;;;13.40;99.90;;;;;;2564715;23;20004;-73
2023/01/02 01:05:43;;;;;;;12.88;7.68;;;13.40;99.90;;;;;;2563195;23;20015;-77
2023/01/02 01:06:44;;;;;;;12.70;7.55;;;13.40;99.90;;;;;;2565090;23;20055;-71
2023/01/02 01:07:44;;;;;;;15.55;7.97;;;13.40;99.90;;;;;;2562759;23;20009;-75
2023/01/02 01:08:45;;;;;;;13.20;7.45;;;13.40;99.90;;;;;;2562880;23;20032;-74
2023/01/02 01:09:45;;;;;;;11.27;7.45;;;13.40;99.90;;;;;;2562918;23;20027;-74
2023/01/02 01:10:47;;;;;;;12.98;7.82;;;13.40;99.90;;;;;;2563210;23;20009;-75
2023/01/02 01:11:47;;;;;;;12.90;7.88;;;13.40;99.90;;;;;;2562991;23;20012;-74
2023/01/02 01:12:48;;;;;;;12.50;7.90;;;13.40;99.90;;;;;;2565157;23;20337;-74
2023/01/02 01:13:48;;;;;;;13.15;7.50;;;13.40;99.90;;;;;;2562886;23;20442;-73
2023/01/02 01:14:49;;;;;;;15.30;8.40;;;13.40;99.90;;;;;;2563380;23;20001;-74
2023/01/02 01:15:49;;;;;;;17.05;8.35;;;13.40;99.90;;;;;;2565039;23;20014;-74
2023/01/02 01:16:50;;;;;;;15.65;7.97;;;13.40;99.90;;;;;;2562906;23;20008;-74
2023/01/02 01:17:50;;;;;;;17.80;8.32;;;13.50;99.90;;;;;;2562728;23;20493;-75
2023/01/02 01:18:55;;;;;;;17.25;8.55;;;13.50;99.90;;;;;;2562869;23;20020;-74
2023/01/02 01:19:56;;;;;;;13.95;7.63;;;13.60;99.90;;;;;;2562774;23;20023;-75
2023/01/02 01:20:56;;;;;;;15.77;8.18;;;13.60;99.90;;;;;;2562991;23;20112;-74
2023/01/02 01:21:57;;;;;;;14.45;7.65;;;13.70;99.90;;;;;;2565043;23;20020;-75
2023/01/02 01:22:57;;;;;;;14.63;7.88;;;13.70;99.90;;;;;;2563011;23;20044;-74
2023/01/02 01:23:58;;;;;;;15.43;7.85;;;13.70;99.90;;;;;;2562796;23;20379;-72
2023/01/02 01:24:58;;;;;;;13.70;8.00;;;13.70;99.90;;;;;;2562981;23;20078;-74
2023/01/02 01:26:03;;;;;;;14.60;8.30;;;13.70;99.90;;;;;;2565219;23;20005;-72
2023/01/02 01:27:03;;;;;;;14.38;7.80;;;13.80;99.90;;;;;;2562881;23;20099;-73
2023/01/02 01:28:04;;;;;;;13.95;7.90;;;13.80;99.90;;;;;;2562876;23;20434;-72
2023/01/02 01:29:04;;;;;;;14.10;7.78;;;13.80;99.90;;;;;;2562036;23;20406;-72
2023/01/02 01:30:05;;;;;;;13.57;7.97;;;13.80;99.90;;;;;;2549437;23;20441;-72
2023/01/02 01:31:12;;;;;;;15.98;7.53;;;13.80;99.90;;;;;;2551775;23;20154;-75
2023/01/02 01:32:12;;;;;;;14.35;7.50;;;13.80;99.90;;;;;;2551577;23;20505;-74
2023/01/02 01:33:13;;;;;;;13.80;7.35;;;13.90;99.90;;;;;;2549696;23;20023;-74
2023/01/02 01:34:14;;;;;;;14.15;8.10;;;13.80;99.90;;;;;;2562773;23;20032;-76
2023/01/02 01:35:14;;;;;;;13.98;7.70;;;13.80;99.90;;;;;;2562896;23;20012;-73
2023/01/02 01:36:18;;;;;;;13.35;7.97;;;13.90;99.90;;;;;;2564721;23;20051;-74
2023/01/02 01:37:18;;;;;;;14.77;7.97;;;13.90;99.90;;;;;;2565039;23;20007;-73
2023/01/02 01:38:19;;;;;;;13.55;8.07;;;13.80;99.90;;;;;;2562979;23;20043;-74
2023/01/02 01:39:19;;;;;;;14.43;7.90;;;13.90;99.90;;;;;;2563022;23;20057;-73
2023/01/02 01:40:20;;;;;;;15.10;7.65;;;13.90;99.90;;;;;;2562663;23;20016;-74
2023/01/02 01:41:22;;;;;;;12.30;7.18;;;13.90;99.90;;;;;;2565129;23;20016;-73
2023/01/02 01:42:23;;;;;;;11.65;7.15;;;13.90;99.90;;;;;;2565027;23;19996;-74
2023/01/02 01:43:42;;;;;;;12.15;7.80;;;13.90;99.90;;;;;;2562463;23;20063;-74
2023/01/02 01:44:43;;;;;;;13.80;8.50;;;13.90;99.90;;;;;;2559481;23;20028;-74
2023/01/02 01:45:44;;;;;;;13.43;7.80;;;13.90;99.90;;;;;;2562966;23;20493;-75
2023/01/02 01:46:46;;;;;;;13.52;8.07;;;13.90;99.90;;;;;;2562923;23;20012;-74
2023/01/02 01:47:55;;;;;;;13.38;7.40;;;13.90;99.90;;;;;;2562664;23;20079;-74
2023/01/02 01:49:04;;;;;;;11.20;7.18;;;13.80;99.90;;;;;;2549772;23;20005;-74
2023/01/02 01:50:10;;;;;;;11.82;7.20;;;13.80;99.90;;;;;;2551225;23;19997;-73
2023/01/02 01:51:11;;;;;;;12.10;6.70;;;13.80;99.90;;;;;;2549416;23;20013;-74
2023/01/02 01:52:17;;;;;;;15.43;7.75;;;13.80;99.90;;;;;;2539296;23;20052;-74
2023/01/02 01:53:20;;;;;;;12.07;7.35;;;13.80;99.90;;;;;;2552730;23;20011;-74
2023/01/02 01:54:27;;;;;;;12.02;7.00;;;13.70;99.90;;;;;;2562457;23;20127;-74
2023/01/02 01:55:32;;;;;;;10.95;7.13;;;13.70;99.90;;;;;;2562777;23;20424;-75
2023/01/02 01:56:36;;;;;;;12.55;7.07;;;13.70;99.90;;;;;;2562692;23;20004;-75
2023/01/02 01:57:45;;;;;;;9.60;6.80;;;13.70;99.90;;;;;;2562609;23;20011;-74
2023/01/02 01:58:45;;;;;;;10.23;6.80;;;13.70;99.90;;;;;;2562800;23;20012;-75
2023/01/02 01:59:47;;;;;;;10.35;6.32;;;13.70;99.90;;;;;;2562790;23;20033;-74
2023/01/02 02:00:48;;;;;;;10.57;6.53;;;13.70;99.90;;;;;;2562678;23;20035;-74
2023/01/02 02:01:50;;;;;;;11.40;7.10;;;13.70;99.90;;;;;;2565394;23;20595;-73
2023/01/02 02:02:56;;;;;;;11.57;6.90;;;13.70;99.90;;;;;;2562677;23;20405;-74
2023/01/02 02:03:57;;;;;;;11.95;7.20;;;13.70;99.90;;;;;;2562616;23;20448;-75
2023/01/02 02:05:01;;;;;;;9.60;6.30;;;13.70;99.90;;;;;;2562817;23;20225;-75
2023/01/02 02:06:02;;;;;;;11.50;6.88;;;13.70;99.90;;;;;;2562776;23;20012;-75
2023/01/02 02:07:03;;;;;;;10.93;6.32;;;13.60;99.90;;;;;;2549713;23;20012;-75
2023/01/02 02:08:14;;;;;;;8.90;6.30;;;13.70;99.90;;;;;;2549931;23;20103;-73
2023/01/02 02:09:21;;;;;;;11.10;6.80;;;13.70;99.90;;;;;;2562791;23;20004;-75
2023/01/02 02:10:22;;;;;;;13.40;7.32;;;13.60;99.90;;;;;;2562691;23;20572;-75
2023/01/02 02:11:22;;;;;;;12.93;7.57;;;13.60;99.90;;;;;;2564670;23;20013;-75
2023/01/02 02:12:23;;;;;;;12.95;7.72;;;13.70;99.90;;;;;;2562807;23;20890;-74
2023/01/02 02:13:24;;;;;;;11.20;7.03;;;13.70;99.90;;;;;;2562649;23;20338;-75
2023/01/02 02:14:27;;;;;;;16.63;8.30;;;13.70;99.90;;;;;;2549512;23;20009;-74
2023/01/02 02:15:39;;;;;;;13.93;7.70;;;13.70;99.90;;;;;;2550921;23;19997;-74
2023/01/02 02:17:02;;;;;;;14.18;7.70;;;13.80;99.90;;;;;;2562843;23;20339;-74
2023/01/02 02:18:18;;;;;;;14.48;7.85;;;13.80;99.90;;;;;;2562583;23;20453;-74
2023/01/02 02:19:48;;;;;;;12.75;7.97;;;13.80;99.90;;;;;;2565481;23;20009;-74
2023/01/02 02:20:59;;;;;;;12.48;7.53;;;13.80;99.90;;;;;;2562895;23;20475;-74
2023/01/02 02:22:33;;;;;;;14.07;7.82;;;13.80;99.90;;;;;;2549582;23;20009;-75
2023/01/02 02:24:05;;;;;;;13.75;7.65;;;13.70;99.90;;;;;;2544102;23;20047;-74
2023/01/02 02:25:24;;;;;;;13.80;7.97;;;13.70;99.90;;;;;;2512717;23;20468;-74
2023/01/02 02:26:48;;;;;;;12.45;7.47;;;13.60;99.90;;;;;;2549059;23;20005;-75
2023/01/02 02:27:57;;;;;;;13.77;7.65;;;13.60;99.90;;;;;;2542109;23;20023;-74
2023/01/02 02:29:11;;;;;;;11.98;7.22;;;13.60;99.90;;;;;;2553956;23;20005;-75
2023/01/02 02:30:20;;;;;;;12.25;7.68;;;13.50;99.90;;;;;;2564729;23;20023;-74
2023/01/02 02:31:45;;;;;;;12.90;7.78;;;13.50;99.90;;;;;;2564972;23;20040;-74
2023/01/02 02:33:07;;;;;;;11.55;7.20;;;13.50;99.90;;;;;;2562477;23;20008;-75
2023/01/02 02:34:30;;;;;;;13.45;7.35;;;13.50;99.90;;;;;;2561585;23;20028;-75
2023/01/02 02:35:49;;;;;;;13.77;7.60;;;13.50;99.90;;;;;;2562154;23;20410;-75
2023/01/02 02:37:22;;;;;;;11.38;7.25;;;13.50;99.90;;;;;;2562619;23;20035;-75
2023/01/02 02:38:57;;;;;;;11.55;6.93;;;13.50;99.90;;;;;;2562492;23;20139;-73
2023/01/02 02:40:36;;;;;;;15.05;8.20;;;13.50;99.90;;;;;;2536884;23;20013;-74
2023/01/02 02:42:01;;;;;;;12.65;7.45;;;13.50;99.90;;;;;;2554204;23;20382;-74
2023/01/02 02:43:39;;;;;;;11.18;7.03;;;13.50;99.90;;;;;;2562248;23;20404;-74
2023/01/02 02:45:05;;;;;;;11.65;6.80;;;13.50;99.90;;;;;;2517380;23;20520;-75
2023/01/02 02:46:18;;;;;;;10.13;6.78;;;13.50;99.90;;;;;;2555027;23;20040;-75
2023/01/02 02:47:29;;;;;;;10.63;6.50;;;13.40;99.90;;;;;;2564934;23;20095;-73
2023/01/02 02:48:45;;;;;;;9.32;6.60;;;13.40;99.90;;;;;;2563839;23;20005;-75
2023/01/02 02:50:03;;;;;;;11.88;7.03;;;13.40;99.90;;;;;;2562285;23;20004;-74
2023/01/02 02:51:09;;;;;;;14.00;7.97;;;13.40;99.90;;;;;;2562531;23;20480;-74
2023/01/02 02:52:41;;;;;;;14.85;8.15;;;13.50;99.90;;;;;;2562685;23;20263;-74
2023/01/02 02:53:49;;;;;;;12.82;7.85;;;13.50;99.90;;;;;;2564721;23;20000;-75
2023/01/02 02:55:02;;;;;;;13.40;8.05;;;13.50;99.90;;;;;;2562621;23;20005;-75
2023/01/02 02:56:06;;;;;;;10.90;7.00;;;13.50;99.90;;;;;;2549231;23;20001;-75
2023/01/02 02:57:08;;;;;;;10.65;6.82;;;13.50;99.90;;;;;;2550076;23;20080;-76
2023/01/02 02:58:08;;;;;;;16.27;8.73;;;13.50;99.90;;;;;;2549497;23;20127;-73
2023/01/02 02:59:10;;;;;;;20.30;10.32;;;13.50;99.90;;;;;;2551483;23;20418;-73
2023/01/02 03:00:18;;;;;;;20.63;10.63;;;13.50;99.90;;;;;;2562591;23;20013;-74
2023/01/02 03:01:23;;;;;;;24.23;12.50;;;13.50;99.90;;;;;;2549411;23;20067;-73
2023/01/02 03:02:23;;;;;;;26.58;12.60;;;13.50;99.90;;;;;;2550156;23;20087;-73
2023/01/02 03:03:24;;;;;;;33.38;15.10;;;13.50;99.90;;;;;;2562499;23;20341;-74
2023/01/02 03:04:24;;;;;;;31.55;14.63;;;13.50;99.90;;;;;;2551555;23;20005;-75
2023/01/02 03:05:38;;;;;;;27.70;13.70;;;13.50;99.90;;;;;;2549292;23;20036;-74
2023/01/02 03:06:51;;;;;;;25.88;13.27;;;13.40;99.90;;;;;;2548983;23;20016;-74
2023/01/02 03:08:03;;;;;;;29.50;14.43;;;13.50;99.90;;;;;;2551831;23;20013;-75
2023/01/02 03:09:09;;;;;;;26.75;12.88;;;13.40;99.90;;;;;;2562414;23;20101;-75
2023/01/02 03:10:19;;;;;;;24.77;12.90;;;13.40;99.90;;;;;;2562250;23;20047;-75
2023/01/02 03:11:26;;;;;;;23.48;12.38;;;13.40;99.90;;;;;;2563402;23;20055;-74
2023/01/02 03:12:48;;;;;;;23.52;13.20;;;13.40;99.90;;;;;;2562492;23;20338;-74
2023/01/02 03:14:05;;;;;;;23.45;13.00;;;13.40;99.90;;;;;;2562208;23;20343;-74
2023/01/02 03:15:14;;;;;;;21.83;12.60;;;13.40;99.90;;;;;;2562732;23;20004;-74
2023/01/02 03:16:32;;;;;;;20.65;12.10;;;13.40;99.90;;;;;;2551362;23;20108;-75
2023/01/02 03:17:46;;;;;;;18.08;11.05;;;13.30;99.90;;;;;;2553129;23;20001;-74
2023/01/02 03:19:18;;;;;;;18.77;10.32;;;13.30;99.90;;;;;;2562836;23;20016;-74
2023/01/02 03:20:21;;;;;;;19.48;10.90;;;13.30;99.90;;;;;;2562234;23;20786;-76
2023/01/02 03:21:55;;;;;;;20.63;11.23;;;13.30;99.90;;;;;;2564565;23;20008;-75
2023/01/02 03:23:03;;;;;;;21.27;11.45;;;13.30;99.90;;;;;;2562326;23;20180;-75
2023/01/02 03:24:10;;;;;;;23.25;12.52;;;13.30;99.90;;;;;;2562393;23;20059;-73
2023/01/02 03:25:13;;;;;;;24.20;13.98;;;13.30;99.90;;;;;;2562351;23;20007;-73
2023/01/02 03:26:24;;;;;;;24.10;13.70;;;13.30;99.90;;;;;;2562351;23;20013;-74
2023/01/02 03:27:28;;;;;;;24.83;13.40;;;13.30;99.90;;;;;;2562373;23;20000;-73
2023/01/02 03:28:31;;;;;;;21.80;12.00;;;13.30;99.90;;;;;;2562142;23;20043;-74
2023/01/02 03:30:11;;;;;;;23.75;12.43;;;13.30;99.90;;;;;;2564622;23;20557;-74
2023/01/02 03:31:17;;;;;;;22.27;12.00;;;13.20;99.90;;;;;;2563529;23;20230;-74
2023/01/02 03:32:23;;;;;;;21.02;11.90;;;13.20;99.90;;;;;;2551521;23;20068;-74
2023/01/02 03:33:27;;;;;;;16.70;10.32;;;13.20;99.90;;;;;;2552607;23;20009;-75
2023/01/02 03:34:31;;;;;;;18.05;10.32;;;13.20;99.90;;;;;;2562374;23;20201;-74
2023/01/02 03:35:36;;;;;;;18.27;10.10;;;13.20;99.90;;;;;;2562592;23;20004;-74
2023/01/02 03:36:39;;;;;;;15.73;9.75;;;13.20;99.90;;;;;;2549074;23;20462;-74
2023/01/02 03:37:47;;;;;;;16.30;9.63;;;13.20;99.90;;;;;;2549574;23;20115;-76
2023/01/02 03:38:59;;;;;;;15.70;9.18;;;13.20;99.90;;;;;;2562564;23;20262;-75
2023/01/02 03:40:08;;;;;;;15.55;8.93;;;13.20;99.90;;;;;;2548925;23;20381;-74
2023/01/02 03:41:23;;;;;;;13.82;8.63;;;13.20;99.90;;;;;;2550781;23;20005;-75
2023/01/02 03:42:28;;;;;;;15.30;8.15;;;13.20;99.90;;;;;;2562345;23;20000;-72
2023/01/02 03:43:32;;;;;;;15.02;8.75;;;13.20;99.90;;;;;;2561972;23;20008;-70
2023/01/02 03:44:41;;;;;;;15.07;8.18;;;13.20;99.90;;;;;;2555737;23;20001;-72
2023/01/02 03:45:48;;;;;;;14.85;8.35;;;13.20;99.90;;;;;;2562323;23;20320;-70
2023/01/02 03:46:54;;;;;;;14.18;8.40;;;13.20;99.90;;;;;;2562377;23;20008;-70
2023/01/02 03:48:01;;;;;;;15.32;8.45;;;13.20;99.90;;;;;;2562364;23;20350;-69
2023/01/02 03:49:09;;;;;;;13.23;7.80;;;13.20;99.90;;;;;;2562231;23;20012;-69
2023/01/02 03:50:35;;;;;;;12.60;8.10;;;13.20;99.90;;;;;;2562122;23;20351;-70
2023/01/02 03:51:36;;;;;;;12.80;7.93;;;13.20;99.90;;;;;;2562736;23;20008;-71
2023/01/02 03:52:36;;;;;;;13.10;7.97;;;13.20;99.90;;;;;;2562265;23;20082;-71
2023/01/02 03:53:39;;;;;;;13.60;8.50;;;13.20;99.90;;;;;;2562197;23;20122;-73
2023/01/02 03:54:39;;;;;;;12.82;8.13;;;13.20;99.90;;;;;;2548974;23;20515;-73
2023/01/02 03:55:47;;;;;;;14.10;8.50;;;13.20;99.90;;;;;;2551310;23;20423;-73
2023/01/02 03:57:13;;;;;;;13.77;9.05;;;13.20;99.90;;;;;;2564330;23;20005;-72
2023/01/02 03:58:21;;;;;;;15.20;8.85;;;13.20;99.90;;;;;;2562140;23;20568;-74
2023/01/02 03:59:36;;;;;;;15.70;9.55;;;13.20;99.90;;;;;;2562439;23;20072;-72
2023/01/02 04:00:50;;;;;;;15.50;9.32;;;13.20;99.90;;;;;;2562089;23;20084;-73
2023/01/02 04:02:27;;;;;;;15.95;9.52;;;13.20;99.90;;;;;;2548944;23;20375;-72
2023/01/02 04:03:39;;;;;;;13.32;8.50;;;13.20;99.90;;;;;;2499692;23;19995;-73
2023/01/02 04:04:45;;;;;;;14.40;8.38;;;13.20;99.90;;;;;;2514483;23;20098;-73
2023/01/02 04:05:57;;;;;;;13.70;8.15;;;13.20;99.90;;;;;;2564474;23;20399;-73
2023/01/02 04:07:02;;;;;;;14.05;8.50;;;13.20;99.90;;;;;;2564271;23;20031;-72
2023/01/02 04:08:14;;;;;;;12.65;7.80;;;13.20;99.90;;;;;;2562138;23;20414;-73
2023/01/02 04:09:21;;;;;;;12.27;7.75;;;13.20;99.90;;;;;;2564316;23;20350;-72
2023/01/02 04:10:24;;;;;;;12.10;7.93;;;13.20;99.90;;;;;;2562119;23;20005;-72
2023/01/02 04:11:27;;;;;;;12.07;7.60;;;13.20;99.90;;;;;;2562066;23;20088;-72
2023/01/02 04:12:31;;;;;;;11.75;7.78;;;13.20;99.90;;;;;;2549020;23;20005;-73
2023/01/02 04:13:38;;;;;;;11.52;6.97;;;13.20;99.90;;;;;;2549790;23;20001;-72
2023/01/02 04:14:49;;;;;;;13.57;7.60;;;13.10;99.90;;;;;;2562299;23;20055;-73
2023/01/02 04:15:52;;;;;;;16.00;8.45;;;13.10;99.90;;;;;;2562195;23;20008;-72
2023/01/02 04:16:54;;;;;;;11.20;7.38;;;13.10;99.90;;;;;;2562003;23;20088;-72
2023/01/02 04:18:07;;;;;;;14.75;8.02;;;13.10;99.90;;;;;;2564133;23;20352;-73
2023/01/02 04:19:25;;;;;;;12.77;7.40;;;13.10;99.90;;;;;;2564385;23;20008;-73
2023/01/02 04:20:30;;;;;;;11.65;7.45;;;13.10;99.90;;;;;;2562062;23;20337;-73
2023/01/02 04:21:34;;;;;;;11.02;7.55;;;13.10;99.90;;;;;;2562148;23;20004;-73
2023/01/02 04:22:41;;;;;;;13.80;7.72;;;13.10;99.90;;;;;;2561214;23;20000;-73
2023/01/02 04:23:47;;;;;;;14.18;8.00;;;13.10;99.90;;;;;;2563535;23;20024;-72
2023/01/02 04:24:54;;;;;;;13.70;7.60;;;13.10;99.90;;;;;;2564419;23;20098;-73
2023/01/02 04:26:01;;;;;;;11.95;7.18;;;13.10;99.90;;;;;;2564427;23;20252;-72
2023/01/02 04:27:12;;;;;;;11.95;7.85;;;13.10;99.90;;;;;;2562199;23;20039;-72
2023/01/02 04:28:34;;;;;;;15.73;8.02;;;13.10;99.90;;;;;;2564626;23;20032;-73
2023/01/02 04:29:34;;;;;;;13.48;7.75;;;13.20;99.90;;;;;;2562029;23;20013;-72
2023/01/02 04:30:40;;;;;;;11.43;7.47;;;13.20;99.90;;;;;;2562221;23;20024;-73
2023/01/02 04:32:03;;;;;;;10.43;7.00;;;13.20;99.90;;;;;;2562166;23;20422;-73
2023/01/02 04:33:10;;;;;;;11.50;7.22;;;13.20;99.90;;;;;;2562080;23;20116;-73
2023/01/02 04:34:14;;;;;;;12.63;7.70;;;13.20;99.90;;;;;;2561872;23;20444;-73
2023/01/02 04:35:18;;;;;;;14.70;7.93;;;13.20;99.90;;;;;;2562087;23;20457;-72
2023/01/02 04:36:19;;;;;;;10.77;7.03;;;13.20;99.90;;;;;;2564479;23;20004;-73
2023/01/02 04:37:36;;;;;;;10.95;7.55;;;13.20;99.90;;;;;;2562064;23;20032;-73
2023/01/02 04:38:36;;;;;;;10.85;6.80;;;13.20;99.90;;;;;;2561638;23;20001;-72
2023/01/02 04:39:38;;;;;;;9.98;6.90;;;13.20;99.90;;;;;;2562280;23;20322;-71
2023/01/02 04:40:38;;;;;;;9.63;6.60;;;13.10;99.90;;;;;;2564370;23;20004;-71
2023/01/02 04:41:40;;;;;;;11.93;7.57;;;13.10;99.90;;;;;;2562524;23;20005;-72
2023/01/02 04:42:40;;;;;;;12.73;7.85;;;13.10;99.90;;;;;;2562045;23;20000;-72
2023/01/02 04:43:41;;;;;;;11.20;7.53;;;13.10;99.90;;;;;;2561510;23;20000;-71
2023/01/02 04:44:41;;;;;;;15.32;8.90;;;13.10;99.90;;;;;;2554206;23;20088;-74
2023/01/02 04:45:42;;;;;;;14.85;8.30;;;13.10;99.90;;;;;;2564174;23;20095;-75
2023/01/02 04:46:42;;;;;;;11.88;7.68;;;13.10;99.90;;;;;;2562103;23;20073;-78
2023/01/02 04:47:45;;;;;;;12.68;8.05;;;13.10;99.90;;;;;;2562042;23;20004;-73
2023/01/02 04:48:46;;;;;;;12.63;7.88;;;13.10;99.90;;;;;;2562184;23;20357;-75
2023/01/02 04:49:47;;;;;;;10.30;7.30;;;13.10;99.90;;;;;;2562465;23;20446;-75
2023/01/02 04:50:50;;;;;;;12.25;7.75;;;13.10;99.90;;;;;;2564295;23;20143;-74
2023/01/02 04:51:51;;;;;;;11.55;7.53;;;13.10;99.90;;;;;;2562046;23;20012;-74
2023/01/02 04:52:51;;;;;;;10.98;7.60;;;13.10;99.90;;;;;;2561946;23;20167;-75
2023/01/02 04:53:53;;;;;;;11.65;7.90;;;13.10;99.90;;;;;;2561958;23;20184;-75
2023/01/02 04:54:53;;;;;;;11.13;7.90;;;13.10;99.90;;;;;;2564087;23;20039;-74
2023/01/02 04:55:56;;;;;;;13.23;8.10;;;13.20;99.90;;;;;;2562027;23;20363;-76
2023/01/02 04:56:56;;;;;;;12.35;7.82;;;13.20;99.90;;;;;;2562433;23;20012;-74
2023/01/02 04:57:57;;;;;;;14.15;8.13;;;13.20;99.90;;;;;;2562175;23;20015;-74
2023/01/02 04:58:58;;;;;;;16.23;8.75;;;13.20;99.90;;;;;;2561870;23;20008;-74
2023/01/02 04:59:58;;;;;;;13.40;8.07;;;13.20;99.90;;;;;;2564200;23;20001;-74
2023/01/02 05:00:59;;;;;;;12.82;8.07;;;13.20;99.90;;;;;;2548749;23;20712;-74
2023/01/02 05:01:59;;;;;;;12.07;7.68;;;13.20;99.90;;;;;;2548964;23;20346;-74
2023/01/02 05:03:01;;;;;;;12.60;8.50;;;13.30;99.90;;;;;;2564161;23;20003;-74
2023/01/02 05:04:02;;;;;;;14.30;7.47;;;13.30;99.90;;;;;;2563991;23;20458;-74
2023/01/02 05:05:03;;;;;;;13.05;8.00;;;13.30;99.90;;;;;;2562176;23;20004;-74
2023/01/02 05:06:04;;;;;;;12.52;8.30;;;13.30;99.90;;;;;;2549036;23;20406;-74
2023/01/02 05:07:05;;;;;;;12.75;8.45;;;13.30;99.90;;;;;;2549213;23;20094;-74
2023/01/02 05:08:06;;;;;;;13.50;8.35;;;13.30;99.90;;;;;;2562115;23;20032;-74
2023/01/02 05:09:06;;;;;;;12.77;7.60;;;13.30;99.90;;;;;;2551144;23;20009;-75
2023/01/02 05:10:07;;;;;;;11.55;7.82;;;13.30;99.90;;;;;;2549106;23;20001;-75
2023/01/02 05:11:14;;;;;;;12.40;8.27;;;13.30;99.90;;;;;;2561865;23;20007;-73
2023/01/02 05:12:15;;;;;;;12.93;7.88;;;13.30;99.90;;;;;;2561899;23;20457;-74
2023/01/02 05:13:15;;;;;;;11.07;7.55;;;13.30;99.90;;;;;;2562054;23;20000;-74
2023/01/02 05:14:16;;;;;;;11.52;6.93;;;13.30;99.90;;;;;;2564368;23;20008;-74
2023/01/02 05:15:17;;;;;;;10.88;7.50;;;13.20;99.90;;;;;;2548921;23;20001;-75
2023/01/02 05:16:17;;;;;;;12.27;7.97;;;13.20;99.90;;;;;;2548807;23;20013;-74
2023/01/02 05:17:18;;;;;;;12.77;7.88;;;13.20;99.90;;;;;;2562165;23;20041;-78
2023/01/02 05:18:18;;;;;;;10.90;7.20;;;13.20;99.90;;;;;;2562058;23;20000;-73
2023/01/02 05:19:19;;;;;;;10.68;7.35;;;13.20;99.90;;;;;;2564044;23;20389;-72
2023/01/02 05:20:19;;;;;;;13.43;7.25;;;13.20;99.90;;;;;;2561902;23;20540;-72
2023/01/02 05:24:02;;;;;;;11.05;6.97;;;13.00;99.90;;;;;;2549005;23;20493;-78
2023/01/02 05:25:02;;;;;;;11.60;7.43;;;13.00;99.90;;;;;;2551365;23;20343;-78
2023/01/02 05:26:10;;;;;;;13.02;8.52;;;13.00;99.90;;;;;;2561944;23;20000;-74
2023/01/02 05:27:10;;;;;;;14.73;8.73;;;13.00;99.90;;;;;;2561999;23;20062;-75
2023/01/02 05:28:11;;;;;;;12.82;8.30;;;13.00;99.90;;;;;;2561976;23;20005;-75
2023/01/02 05:29:12;;;;;;;12.15;8.05;;;13.00;99.90;;;;;;2548897;23;20009;-76
2023/01/02 05:30:12;;;;;;;11.63;7.78;;;13.00;99.90;;;;;;2536504;23;20434;-74
2023/01/02 05:31:13;;;;;;;13.60;8.30;;;13.00;99.90;;;;;;2548784;23;20001;-74
2023/01/02 05:32:13;;;;;;;10.90;8.20;;;13.00;99.90;;;;;;2564040;23;20400;-74
2023/01/02 05:33:14;;;;;;;13.45;8.55;;;13.00;99.90;;;;;;2561951;23;20001;-73
2023/01/02 05:34:15;;;;;;;13.50;8.30;;;12.90;99.90;;;;;;2561973;23;20401;-73
2023/01/02 05:35:16;;;;;;;11.50;7.63;;;13.00;99.90;;;;;;2561867;23;20009;-73
2023/01/02 05:36:17;;;;;;;11.73;7.15;;;12.90;99.90;;;;;;2550753;23;20012;-76
2023/01/02 05:37:17;;;;;;;11.90;7.88;;;12.90;99.90;;;;;;2549067;23;20886;-73
2023/01/02 05:38:18;;;;;;;12.05;8.10;;;12.90;99.90;;;;;;2561996;23;20007;-75
2023/01/02 05:39:18;;;;;;;11.55;7.85;;;12.90;99.90;;;;;;2561999;23;20026;-74